createdAt,value
2022-10-27T00:01:22.206Z,66.23
2022-10-27T00:06:24.129Z,66.84
2022-10-27T00:11:26.197Z,66.38
2022-10-27T00:16:28.185Z,66.12
2022-10-27T00:21:30.145Z,66.94
2022-10-27T00:26:32.275Z,66.23
2022-10-27T00:31:34.206Z,66.40
2022-10-27T00:36:36.240Z,66.26
2022-10-27T00:41:40.658Z,65.96
2022-10-27T00:46:45.573Z,66.04
2022-10-27T00:52:06.729Z,66.40
2022-10-27T00:57:11.154Z,66.06
2022-10-27T01:02:13.357Z,66.58
2022-10-27T01:07:17.781Z,67.03
2022-10-27T01:12:20.260Z,67.39
2022-10-27T01:17:34.604Z,68.37
2022-10-27T01:22:50.974Z,68.78
2022-10-27T01:28:03.652Z,68.69
2022-10-27T01:33:11.547Z,67.88
2022-10-27T01:38:32.534Z,68.31
2022-10-27T01:43:35.307Z,68.40
2022-10-27T01:48:38.335Z,68.83
2022-10-27T01:53:46.275Z,69.29
2022-10-27T01:59:07.204Z,68.92
2022-10-27T02:04:23.035Z,68.90
2022-10-27T02:09:39.270Z,68.30
2022-10-27T02:14:43.320Z,68.63
2022-10-27T02:19:47.222Z,68.93
2022-10-27T02:24:49.331Z,68.88
2022-10-27T02:29:55.350Z,69.29
2022-10-27T02:35:09.697Z,68.74
2022-10-27T02:40:12.227Z,68.85
2022-10-27T02:45:14.341Z,69.04
2022-10-27T02:50:17.079Z,69.22
2022-10-27T02:55:19.232Z,69.35
2022-10-27T03:00:21.300Z,68.10
2022-10-27T03:05:23.285Z,68.27
2022-10-27T03:10:26.525Z,68.88
2022-10-27T03:15:28.495Z,69.35
2022-10-27T03:20:30.806Z,68.81
2022-10-27T03:25:33.597Z,66.29
2022-10-27T03:30:36.207Z,66.41
2022-10-27T03:35:38.092Z,66.18
2022-10-27T03:40:40.237Z,66.74
2022-10-27T03:45:42.578Z,66.40
2022-10-27T03:50:50.556Z,66.73
2022-10-27T03:55:52.460Z,67.83
2022-10-27T04:00:54.622Z,68.10
2022-10-27T04:05:56.760Z,68.94
2022-10-27T04:10:58.705Z,69.23
2022-10-27T04:16:02.010Z,68.78
2022-10-27T04:21:06.525Z,69.18
2022-10-27T04:26:09.066Z,68.66
2022-10-27T04:31:11.403Z,69.03
2022-10-27T04:36:14.456Z,69.28
2022-10-27T04:41:16.565Z,69.03
2022-10-27T04:46:18.515Z,69.28
2022-10-27T04:51:22.917Z,69.07
2022-10-27T04:56:25.365Z,68.84
2022-10-27T05:01:27.343Z,69.18
2022-10-27T05:06:29.305Z,69.23
2022-10-27T05:11:31.171Z,68.88
2022-10-27T05:16:33.114Z,69.26
2022-10-27T05:21:36.262Z,68.67
2022-10-27T05:26:38.243Z,69.04
2022-10-27T05:31:40.277Z,69.07
2022-10-27T05:36:43.862Z,68.93
2022-10-27T05:41:45.873Z,68.73
2022-10-27T05:46:48.793Z,69.22
2022-10-27T05:51:51.462Z,68.73
2022-10-27T05:56:53.365Z,68.84
2022-10-27T06:01:55.677Z,68.84
2022-10-27T06:06:57.764Z,68.55
2022-10-27T06:11:59.622Z,68.68
2022-10-27T06:17:01.584Z,68.15
2022-10-27T06:22:03.545Z,68.77
2022-10-27T06:27:05.894Z,67.89
2022-10-27T06:32:07.857Z,68.04
2022-10-27T06:37:09.911Z,67.62
2022-10-27T06:42:11.972Z,68.64
2022-10-27T06:47:17.633Z,68.56
2022-10-27T06:52:20.007Z,67.66
2022-10-27T06:57:25.008Z,66.93
2022-10-27T07:02:27.044Z,66.08
2022-10-27T07:07:29.144Z,67.72
2022-10-27T07:12:31.109Z,67.90
2022-10-27T07:17:33.056Z,68.09
2022-10-27T07:22:35.021Z,68.32
2022-10-27T07:27:37.170Z,68.94
2022-10-27T07:32:39.054Z,69.08
2022-10-27T07:37:44.714Z,69.48
2022-10-27T07:42:53.154Z,69.44
2022-10-27T07:47:57.226Z,69.70
2022-10-27T07:53:01.645Z,68.88
2022-10-27T07:58:06.948Z,68.55
2022-10-27T08:03:16.805Z,68.76
2022-10-27T08:08:24.182Z,68.14
2022-10-27T08:13:26.185Z,67.75
2022-10-27T08:18:28.281Z,67.19
2022-10-27T08:23:30.250Z,68.81
2022-10-27T08:28:32.305Z,66.37
2022-10-27T08:33:34.357Z,68.10
2022-10-27T08:38:37.112Z,69.20
2022-10-27T08:43:45.378Z,68.49
2022-10-27T08:48:49.013Z,68.30
2022-10-27T08:53:56.940Z,68.02
2022-10-27T08:58:59.026Z,67.53
2022-10-27T09:11:41.708Z,65.55
2022-10-27T09:16:56.799Z,65.48
2022-10-27T09:22:00.119Z,61.52
2022-10-27T09:27:18.800Z,58.70
2022-10-27T09:32:24.067Z,59.06
2022-10-27T09:37:27.368Z,57.82
2022-10-27T09:42:30.461Z,57.62
2022-10-27T09:47:36.615Z,54.35
2022-10-27T09:52:42.700Z,56.09
2022-10-27T09:58:54.701Z,53.26
2022-10-27T10:04:05.326Z,53.40
2022-10-27T10:09:18.734Z,52.67
2022-10-27T10:14:25.396Z,52.82
2022-10-27T10:19:27.476Z,53.29
2022-10-27T10:24:36.663Z,52.21
2022-10-27T10:29:49.158Z,50.19
2022-10-27T10:34:53.487Z,50.77
2022-10-27T10:39:55.479Z,50.21
2022-10-27T10:45:11.681Z,48.42
2022-10-27T10:50:14.237Z,45.54
2022-10-27T10:55:22.342Z,45.71
2022-10-27T11:00:24.755Z,46.72
2022-10-27T11:05:44.302Z,46.24
2022-10-27T11:10:47.531Z,45.81
2022-10-27T11:15:52.950Z,44.18
2022-10-27T11:21:09.555Z,44.40
2022-10-27T11:26:14.088Z,43.14
2022-10-27T11:31:36.594Z,42.35
2022-10-27T11:36:54.719Z,42.10
2022-10-27T11:42:21.880Z,42.52
2022-10-27T11:47:29.101Z,42.56
2022-10-27T11:52:38.292Z,41.69
2022-10-27T11:57:57.079Z,43.63
2022-10-27T12:03:08.370Z,42.94
2022-10-27T12:08:36.358Z,41.60
2022-10-27T12:14:03.556Z,41.93
2022-10-27T12:19:28.983Z,40.87
2022-10-27T12:24:46.578Z,41.36
2022-10-27T12:29:50.199Z,40.58
2022-10-27T12:35:10.439Z,40.40
2022-10-27T12:40:30.899Z,44.47
2022-10-27T12:45:36.689Z,43.62
2022-10-27T12:50:47.593Z,44.45
2022-10-27T12:55:55.452Z,42.31
2022-10-27T13:01:03.886Z,42.44
2022-10-27T13:06:43.007Z,42.20
2022-10-27T13:11:54.176Z,40.85
2022-10-27T13:17:24.790Z,41.83
2022-10-27T13:22:28.653Z,40.88
2022-10-27T13:27:44.956Z,41.65
2022-10-27T13:32:47.009Z,41.05
2022-10-27T13:37:54.434Z,42.80
2022-10-27T13:42:58.651Z,42.73
2022-10-27T13:48:12.257Z,42.04
2022-10-27T13:53:19.880Z,42.59
2022-10-27T13:58:40.587Z,42.80
2022-10-27T14:04:03.881Z,42.08
2022-10-27T14:09:24.609Z,40.76
2022-10-27T14:14:38.820Z,41.05
2022-10-27T14:19:43.695Z,41.77
2022-10-27T14:24:52.967Z,41.33
2022-10-27T14:30:14.054Z,41.11
2022-10-27T14:35:30.339Z,42.21
2022-10-27T14:40:37.786Z,41.97
2022-10-27T14:45:41.365Z,42.67
2022-10-27T14:50:43.416Z,43.26
2022-10-27T14:55:45.320Z,41.78
2022-10-27T15:00:51.215Z,41.20
2022-10-27T15:05:53.285Z,40.31
2022-10-27T15:12:13.981Z,40.25
2022-10-27T15:17:21.131Z,40.97
2022-10-27T15:22:23.393Z,41.46
2022-10-27T15:27:27.845Z,42.11
2022-10-27T15:32:39.968Z,42.34
2022-10-27T15:38:51.037Z,40.48
2022-10-27T15:44:18.161Z,41.19
2022-10-27T15:49:20.273Z,41.82
2022-10-27T15:54:37.233Z,43.19
2022-10-27T16:00:19.029Z,42.66
2022-10-27T16:05:29.891Z,45.47
2022-10-27T16:10:31.863Z,47.12
2022-10-27T16:15:36.870Z,47.78
2022-10-27T16:20:43.738Z,47.52
2022-10-27T16:25:47.020Z,47.65
2022-10-27T16:31:58.290Z,50.59
2022-10-27T16:37:00.228Z,50.24
2022-10-27T16:42:02.226Z,50.44
2022-10-27T16:48:14.226Z,51.76
2022-10-27T16:53:21.500Z,52.43
2022-10-27T16:58:23.429Z,51.72
2022-10-27T17:03:26.895Z,53.02
2022-10-27T17:08:29.330Z,51.84
2022-10-27T17:13:31.403Z,52.14
2022-10-27T17:18:33.477Z,53.29
2022-10-27T17:23:35.703Z,53.49
2022-10-27T17:28:37.706Z,53.31
2022-10-27T17:33:40.183Z,53.95
2022-10-27T17:38:42.329Z,54.80
2022-10-27T17:43:44.904Z,54.53
2022-10-27T17:48:56.156Z,54.41
2022-10-27T17:54:00.791Z,53.75
2022-10-27T17:59:04.328Z,53.52
2022-10-27T18:04:08.742Z,53.77
2022-10-27T18:09:11.371Z,53.11
2022-10-27T18:14:15.764Z,53.62
2022-10-27T18:19:17.859Z,54.65
2022-10-27T18:24:21.720Z,54.32
2022-10-27T18:29:26.428Z,52.82
2022-10-27T18:34:29.415Z,54.18
2022-10-27T18:39:31.941Z,53.00
2022-10-27T18:44:33.854Z,54.23
2022-10-27T18:49:47.994Z,52.34
2022-10-27T18:54:50.526Z,49.72
2022-10-27T18:59:52.623Z,45.30
2022-10-27T19:04:54.580Z,49.29
2022-10-27T19:09:56.578Z,50.34
2022-10-27T19:14:58.676Z,52.05
2022-10-27T19:20:00.725Z,52.01
2022-10-27T19:25:03.557Z,53.60
2022-10-27T19:30:05.883Z,52.62
2022-10-27T19:35:07.936Z,53.26
2022-10-27T19:40:10.358Z,54.03
2022-10-27T19:45:12.345Z,53.76
2022-10-27T19:50:14.527Z,55.19
2022-10-27T19:55:16.454Z,55.00
2022-10-27T20:00:18.644Z,56.08
2022-10-27T20:05:25.690Z,55.92
2022-10-27T20:10:27.492Z,57.04
2022-10-27T20:15:30.319Z,57.28
2022-10-27T20:20:33.491Z,57.69
2022-10-27T20:26:45.538Z,57.80
2022-10-27T20:31:48.210Z,58.06
2022-10-27T20:36:51.276Z,58.72
2022-10-27T20:41:53.833Z,58.82
2022-10-27T20:46:55.878Z,59.43
2022-10-27T20:51:57.919Z,59.81
2022-10-27T20:57:00.195Z,60.10
2022-10-27T21:02:02.257Z,60.14
2022-10-27T21:07:04.455Z,59.47
2022-10-27T21:12:06.780Z,59.31
2022-10-27T21:17:08.807Z,59.08
2022-10-27T21:22:10.759Z,59.52
2022-10-27T21:27:13.422Z,59.41
2022-10-27T21:32:15.632Z,59.33
2022-10-27T21:37:18.396Z,60.01
2022-10-27T21:42:20.327Z,59.99
2022-10-27T21:47:22.470Z,60.67
2022-10-27T21:52:24.491Z,61.11
2022-10-27T21:57:26.367Z,61.68
2022-10-27T22:02:28.421Z,61.71
2022-10-27T22:07:30.618Z,61.17
2022-10-27T22:12:32.695Z,60.85
2022-10-27T22:17:34.749Z,60.83
2022-10-27T22:22:36.995Z,60.01
2022-10-27T22:27:39.138Z,60.21
2022-10-27T22:32:42.823Z,59.51
2022-10-27T22:37:44.799Z,59.65
2022-10-27T22:42:46.751Z,59.52
2022-10-27T22:47:48.988Z,58.31
2022-10-27T22:52:51.161Z,58.31
2022-10-27T22:58:26.038Z,58.73
2022-10-27T23:03:28.093Z,59.61
2022-10-27T23:08:30.626Z,60.08
2022-10-27T23:13:34.870Z,59.89
2022-10-27T23:18:38.918Z,61.34
2022-10-27T23:23:41.342Z,61.18
2022-10-27T23:28:43.389Z,60.93
2022-10-27T23:33:46.359Z,60.60
2022-10-27T23:38:48.629Z,61.07
2022-10-27T23:43:55.739Z,61.29
2022-10-27T23:48:58.540Z,62.12
2022-10-27T23:54:00.942Z,62.68
2022-10-27T23:59:03.169Z,62.74
